createdAt,value
2018-01-13T00:00:49.885Z,30.67
2018-01-13T00:03:17.716Z,30.53
2018-01-13T00:05:45.370Z,28.50
2018-01-13T00:08:12.953Z,32.23
2018-01-13T00:10:40.548Z,30.93
2018-01-13T00:13:08.378Z,31.10
2018-01-13T00:15:36.176Z,32.07
2018-01-13T00:18:04.116Z,30.83
2018-01-13T00:20:32.460Z,31.60
2018-01-13T00:23:00.447Z,30.63
2018-01-13T00:25:28.579Z,31.93
2018-01-13T00:27:56.560Z,31.60
2018-01-13T00:30:24.642Z,33.50
2018-01-13T00:32:52.873Z,30.00
2018-01-13T00:35:21.233Z,32.17
2018-01-13T00:37:49.338Z,31.77
2018-01-13T00:40:16.964Z,34.93
2018-01-13T00:42:44.670Z,30.93
2018-01-13T00:45:12.229Z,32.17
2018-01-13T00:47:39.784Z,32.07
2018-01-13T00:50:07.432Z,30.93
2018-01-13T00:52:35.033Z,32.27
2018-01-13T00:55:03.059Z,31.77
2018-01-13T00:57:30.755Z,33.07
2018-01-13T00:59:58.668Z,29.33
2018-01-13T01:02:26.301Z,30.53
2018-01-13T01:04:53.907Z,33.40
2018-01-13T01:07:21.866Z,31.97
2018-01-13T01:09:49.457Z,31.30
2018-01-13T01:12:17.007Z,31.77
2018-01-13T01:14:44.657Z,30.47
2018-01-13T01:17:12.297Z,33.13
2018-01-13T01:19:39.886Z,28.13
2018-01-13T01:22:07.487Z,31.27
2018-01-13T01:24:35.181Z,32.10
2018-01-13T01:27:02.733Z,29.17
2018-01-13T01:29:30.328Z,29.57
2018-01-13T01:31:58.240Z,28.80
2018-01-13T01:34:25.837Z,31.57
2018-01-13T01:36:53.466Z,30.70
2018-01-13T01:39:21.096Z,29.13
2018-01-13T01:41:48.737Z,29.53
2018-01-13T01:44:16.363Z,31.47
2018-01-13T01:46:44.266Z,29.70
2018-01-13T01:49:11.932Z,31.97
2018-01-13T01:51:39.536Z,30.90
2018-01-13T01:54:07.224Z,31.70
2018-01-13T01:56:34.802Z,32.40
2018-01-13T01:59:02.671Z,30.33
2018-01-13T02:01:30.248Z,29.80
2018-01-13T02:03:58.038Z,31.17
2018-01-13T02:06:25.759Z,29.70
2018-01-13T02:08:53.350Z,29.70
2018-01-13T02:11:21.025Z,31.70
2018-01-13T02:13:48.708Z,30.30
2018-01-13T02:16:16.821Z,30.13
2018-01-13T02:18:44.519Z,29.47
2018-01-13T02:21:12.135Z,30.03
2018-01-13T02:23:39.818Z,27.33
2018-01-13T02:26:07.693Z,29.00
2018-01-13T02:28:35.311Z,30.67
2018-01-13T02:31:03.118Z,30.17
2018-01-13T02:33:31.040Z,27.60
2018-01-13T02:35:58.705Z,29.77
2018-01-13T02:38:26.331Z,30.83
2018-01-13T02:40:53.940Z,32.47
2018-01-13T02:43:21.564Z,29.43
2018-01-13T02:45:49.159Z,27.50
2018-01-13T02:48:16.787Z,29.67
2018-01-13T02:50:44.616Z,29.30
2018-01-13T02:53:12.520Z,29.03
2018-01-13T02:55:40.087Z,30.23
2018-01-13T02:58:07.909Z,29.30
2018-01-13T03:00:35.470Z,29.30
2018-01-13T03:03:03.057Z,31.80
2018-01-13T03:05:30.855Z,30.23
2018-01-13T03:07:58.502Z,32.23
2018-01-13T03:10:26.140Z,32.27
2018-01-13T03:12:54.088Z,30.50
2018-01-13T03:15:22.057Z,31.20
2018-01-13T03:17:49.687Z,30.57
2018-01-13T03:20:17.377Z,30.10
2018-01-13T03:22:44.983Z,33.63
2018-01-13T03:25:12.544Z,31.10
2018-01-13T03:27:40.166Z,28.70
2018-01-13T03:30:07.801Z,33.70
2018-01-13T03:32:35.428Z,30.53
2018-01-13T03:35:03.063Z,31.60
2018-01-13T03:37:30.664Z,32.27
2018-01-13T03:39:58.226Z,32.90
2018-01-13T03:42:25.842Z,31.40
2018-01-13T03:44:53.401Z,33.20
2018-01-13T03:47:21.045Z,30.10
2018-01-13T03:49:48.637Z,32.57
2018-01-13T03:52:16.216Z,33.70
2018-01-13T03:54:43.852Z,32.93
2018-01-13T03:57:11.474Z,29.80
2018-01-13T03:59:39.073Z,30.80
2018-01-13T04:02:06.932Z,32.67
2018-01-13T04:04:34.483Z,30.80
2018-01-13T04:07:02.143Z,29.67
2018-01-13T04:09:30.005Z,32.53
2018-01-13T04:11:57.606Z,31.60
2018-01-13T04:14:25.161Z,29.60
2018-01-13T04:16:52.749Z,30.50
2018-01-13T04:19:20.578Z,26.57
2018-01-13T04:21:48.171Z,29.67
2018-01-13T04:24:15.844Z,30.90
2018-01-13T04:26:43.465Z,30.43
2018-01-13T04:29:11.067Z,30.97
2018-01-13T04:31:38.729Z,30.20
2018-01-13T04:34:06.351Z,28.93
2018-01-13T04:36:33.903Z,32.90
2018-01-13T04:39:01.694Z,28.60
2018-01-13T04:41:29.355Z,30.20
2018-01-13T04:43:56.922Z,26.60
2018-01-13T04:46:24.580Z,25.87
2018-01-13T04:48:52.376Z,26.90
2018-01-13T04:51:20.559Z,30.00
2018-01-13T04:53:48.153Z,28.00
2018-01-13T04:56:16.107Z,30.67
2018-01-13T04:58:43.685Z,28.13
2018-01-13T05:01:11.240Z,27.27
2018-01-13T05:03:39.202Z,27.20
2018-01-13T05:06:06.793Z,28.70
2018-01-13T05:08:34.658Z,26.97
2018-01-13T05:11:02.284Z,30.20
2018-01-13T05:13:30.156Z,27.90
2018-01-13T05:15:58.126Z,28.20
2018-01-13T05:18:26.385Z,32.00
2018-01-13T05:20:53.979Z,29.57
2018-01-13T05:23:21.820Z,27.77
2018-01-13T05:25:49.474Z,29.37
2018-01-13T05:28:17.084Z,32.97
2018-01-13T05:30:44.795Z,27.90
2018-01-13T05:33:12.360Z,28.47
2018-01-13T05:35:40.220Z,30.17
2018-01-13T05:38:08.360Z,27.57
2018-01-13T05:40:36.263Z,27.40
2018-01-13T05:43:03.892Z,27.07
2018-01-13T05:45:31.773Z,27.00
2018-01-13T05:47:59.371Z,27.80
2018-01-13T05:50:26.968Z,27.00
2018-01-13T05:52:54.641Z,28.10
2018-01-13T05:55:22.209Z,25.87
2018-01-13T05:57:50.115Z,28.30
2018-01-13T06:00:17.762Z,28.30
2018-01-13T06:02:45.518Z,28.80
2018-01-13T06:05:13.409Z,28.67
2018-01-13T06:07:41.062Z,28.40
2018-01-13T06:10:08.634Z,23.97
2018-01-13T06:12:36.282Z,27.20
2018-01-13T06:15:03.902Z,26.57
2018-01-13T06:20:05.934Z,26.30
2018-01-13T06:22:33.545Z,28.77
2018-01-13T06:25:01.102Z,25.20
2018-01-13T06:27:28.927Z,28.90
2018-01-13T06:29:56.868Z,26.33
2018-01-13T06:32:24.758Z,26.37
2018-01-13T06:34:52.356Z,25.10
2018-01-13T06:37:20.397Z,23.87
2018-01-13T06:39:48.020Z,27.87
2018-01-13T06:42:15.577Z,24.73
2018-01-13T06:44:43.585Z,26.47
2018-01-13T06:47:11.192Z,26.30
2018-01-13T06:49:38.824Z,28.53
2018-01-13T06:52:06.415Z,27.30
2018-01-13T06:54:34.088Z,24.40
2018-01-13T06:57:02.000Z,25.70
2018-01-13T06:59:29.565Z,26.17
2018-01-13T07:01:57.137Z,27.43
2018-01-13T07:04:24.759Z,27.17
2018-01-13T07:06:52.362Z,24.80
2018-01-13T07:09:20.184Z,27.03
2018-01-13T07:11:48.075Z,27.03
2018-01-13T07:14:15.935Z,26.03
2018-01-13T07:16:43.554Z,27.17
2018-01-13T07:19:11.185Z,25.33
2018-01-13T07:21:38.767Z,25.23
2018-01-13T07:24:06.393Z,24.13
2018-01-13T07:26:34.021Z,29.03
2018-01-13T07:29:01.648Z,24.03
2018-01-13T07:31:29.255Z,25.27
2018-01-13T07:33:56.902Z,27.33
2018-01-13T07:36:24.807Z,24.70
2018-01-13T07:38:52.609Z,27.50
2018-01-13T07:41:20.261Z,26.10
2018-01-13T07:43:49.893Z,24.87
2018-01-13T07:46:17.478Z,27.10
2018-01-13T07:48:45.436Z,26.17
2018-01-13T07:51:13.255Z,25.37
2018-01-13T07:53:40.809Z,27.90
2018-01-13T07:56:08.440Z,25.67
2018-01-13T07:58:36.127Z,25.93
2018-01-13T08:01:03.981Z,28.00
2018-01-13T08:03:31.708Z,26.93
2018-01-13T08:05:59.717Z,27.43
2018-01-13T08:08:27.326Z,26.97
2018-01-13T08:10:54.950Z,25.80
2018-01-13T08:13:22.741Z,25.50
2018-01-13T08:15:50.322Z,26.20
2018-01-13T08:18:17.937Z,25.57
2018-01-13T08:20:46.457Z,29.27
2018-01-13T08:23:14.390Z,26.90
2018-01-13T08:25:42.035Z,27.23
2018-01-13T08:28:09.592Z,26.90
2018-01-13T08:30:37.462Z,24.57
2018-01-13T08:33:05.137Z,27.10
2018-01-13T08:35:33.043Z,29.40
2018-01-13T08:38:00.702Z,25.77
2018-01-13T08:40:28.306Z,26.10
2018-01-13T08:42:56.230Z,26.43
2018-01-13T08:45:23.812Z,25.80
2018-01-13T08:47:51.426Z,25.80
2018-01-13T08:50:18.990Z,28.47
2018-01-13T08:52:46.633Z,26.97
2018-01-13T08:55:14.302Z,24.90
2018-01-13T08:57:41.966Z,24.07
2018-01-13T09:00:09.584Z,27.30
2018-01-13T09:02:39.907Z,26.67
2018-01-13T09:05:07.810Z,26.80
2018-01-13T09:07:35.364Z,26.50
2018-01-13T09:10:03.029Z,25.50
2018-01-13T09:12:30.694Z,27.93
2018-01-13T09:14:58.544Z,26.73
2018-01-13T09:17:26.382Z,25.67
2018-01-13T09:19:54.015Z,28.03
2018-01-13T09:22:21.630Z,28.60
2018-01-13T09:24:49.247Z,26.10
2018-01-13T09:27:17.292Z,26.37
2018-01-13T09:29:44.869Z,28.03
2018-01-13T09:32:12.525Z,26.00
2018-01-13T09:34:40.131Z,26.87
2018-01-13T09:37:07.984Z,25.80
2018-01-13T09:39:35.568Z,25.07
2018-01-13T09:42:03.192Z,25.60
2018-01-13T09:44:30.868Z,26.60
2018-01-13T09:46:58.663Z,25.43
2018-01-13T09:49:26.310Z,26.17
2018-01-13T09:51:53.869Z,24.37
2018-01-13T09:54:21.426Z,23.80
2018-01-13T09:56:49.013Z,25.43
2018-01-13T09:59:16.604Z,26.00
2018-01-13T10:01:44.567Z,25.83
2018-01-13T10:04:12.154Z,26.97
2018-01-13T10:06:40.210Z,26.43
2018-01-13T10:09:07.913Z,24.60
2018-01-13T10:11:35.586Z,24.80
2018-01-13T10:14:03.206Z,25.63
2018-01-13T10:16:30.810Z,27.50
2018-01-13T10:18:58.429Z,26.67
2018-01-13T10:21:26.024Z,26.30
2018-01-13T10:23:54.356Z,24.97
2018-01-13T10:26:22.879Z,25.70
2018-01-13T10:28:50.462Z,25.10
2018-01-13T10:31:18.095Z,25.70
2018-01-13T10:33:46.014Z,24.00
2018-01-13T10:36:13.578Z,26.47
2018-01-13T10:38:41.338Z,26.33
2018-01-13T10:41:09.098Z,27.57
2018-01-13T10:43:36.661Z,26.73
2018-01-13T10:46:04.274Z,25.40
2018-01-13T10:48:31.894Z,25.87
2018-01-13T10:50:59.955Z,26.97
2018-01-13T10:53:27.554Z,26.17
2018-01-13T10:55:55.108Z,25.33
2018-01-13T10:58:22.735Z,25.90
2018-01-13T11:00:50.318Z,24.23
2018-01-13T11:03:17.999Z,26.13
2018-01-13T11:05:45.606Z,23.93
2018-01-13T11:08:13.308Z,24.40
2018-01-13T11:10:40.954Z,24.30
2018-01-13T11:13:08.561Z,27.27
2018-01-13T11:15:36.574Z,26.00
2018-01-13T11:18:04.170Z,23.63
2018-01-13T11:20:32.102Z,25.93
2018-01-13T11:22:59.661Z,25.33
2018-01-13T11:25:27.299Z,22.73
2018-01-13T11:27:54.867Z,24.00
2018-01-13T11:30:22.796Z,21.93
2018-01-13T11:32:50.427Z,22.60
2018-01-13T11:35:18.033Z,22.37
2018-01-13T11:37:46.033Z,23.80
2018-01-13T11:40:13.653Z,19.43
2018-01-13T11:42:41.579Z,23.47
2018-01-13T11:45:09.178Z,23.33
2018-01-13T11:47:36.820Z,23.00
2018-01-13T11:50:04.718Z,20.50
2018-01-13T11:52:32.290Z,20.90
2018-01-13T11:55:00.212Z,22.50
2018-01-13T12:00:50.022Z,21.17
2018-01-13T12:03:29.528Z,21.33
2018-01-13T12:28:07.222Z,19.70
2018-01-13T12:30:35.386Z,21.90
2018-01-13T12:36:16.050Z,22.47
2018-01-13T12:41:51.586Z,20.53
2018-01-13T12:44:19.248Z,23.00
2018-01-13T12:46:49.200Z,20.80
2018-01-13T12:49:30.970Z,21.27
2018-01-13T12:52:08.178Z,22.47
2018-01-13T13:01:01.598Z,21.50
2018-01-13T13:03:29.237Z,23.00
2018-01-13T13:05:56.887Z,20.70
2018-01-13T13:08:24.452Z,21.90
2018-01-13T13:11:16.484Z,20.43
2018-01-13T13:13:44.484Z,21.33
2018-01-13T13:16:17.727Z,22.83
2018-01-13T13:18:45.287Z,22.37
2018-01-13T13:35:02.211Z,20.97
2018-01-13T13:37:30.788Z,22.07
2018-01-13T13:39:58.416Z,23.43
2018-01-13T13:42:26.710Z,22.00
2018-01-13T13:44:54.265Z,20.70
2018-01-13T13:47:21.961Z,22.53
2018-01-13T13:49:49.852Z,24.30
2018-01-13T13:52:18.665Z,21.73
2018-01-13T13:55:01.112Z,23.80
2018-01-13T13:57:28.883Z,20.63
2018-01-13T14:00:07.542Z,22.77
2018-01-13T14:02:35.562Z,20.03
2018-01-13T14:05:03.978Z,21.37
2018-01-13T14:07:31.823Z,20.37
2018-01-13T14:10:01.148Z,21.13
2018-01-13T14:12:27.079Z,21.50
2018-01-13T14:14:54.988Z,21.43
2018-01-13T14:17:22.602Z,22.37
2018-01-13T14:19:57.409Z,20.10
2018-01-13T14:23:11.422Z,20.70
2018-01-13T14:25:39.351Z,19.47
2018-01-13T14:28:07.366Z,21.07
2018-01-13T14:30:47.916Z,22.57
2018-01-13T14:33:15.609Z,19.60
2018-01-13T14:35:43.291Z,19.70
2018-01-13T14:38:10.929Z,21.17
2018-01-13T14:40:41.810Z,22.60
2018-01-13T14:43:09.838Z,19.33
2018-01-13T14:46:08.251Z,20.90
2018-01-13T14:48:49.098Z,21.20
2018-01-13T14:51:21.909Z,19.93
2018-01-13T14:53:59.694Z,21.90
2018-01-13T14:56:39.578Z,21.60
2018-01-13T15:01:53.947Z,21.40
2018-01-13T15:04:26.933Z,20.43
2018-01-13T15:07:01.839Z,20.20
2018-01-13T15:09:31.077Z,23.47
2018-01-13T15:11:58.661Z,19.87
2018-01-13T15:14:26.261Z,20.53
2018-01-13T15:16:53.886Z,22.90
2018-01-13T15:19:21.493Z,19.73
2018-01-13T15:21:49.126Z,21.83
2018-01-13T15:24:17.129Z,21.97
2018-01-13T15:26:44.852Z,20.77
2018-01-13T15:29:12.598Z,19.60
2018-01-13T15:31:40.571Z,20.57
2018-01-13T15:34:08.166Z,20.77
2018-01-13T15:36:35.818Z,20.53
2018-01-13T15:39:03.562Z,19.63
2018-01-13T15:41:31.445Z,20.60
2018-01-13T15:43:59.004Z,21.97
2018-01-13T15:46:26.672Z,21.50
2018-01-13T15:48:54.239Z,20.40
2018-01-13T15:51:22.041Z,23.47
2018-01-13T15:53:49.897Z,22.30
2018-01-13T15:56:17.482Z,21.93
2018-01-13T15:58:45.167Z,22.57
2018-01-13T16:01:13.039Z,22.73
2018-01-13T16:03:40.628Z,22.23
2018-01-13T16:06:08.253Z,22.27
2018-01-13T16:08:35.873Z,20.77
2018-01-13T16:11:03.517Z,24.17
2018-01-13T16:13:31.230Z,23.87
2018-01-13T16:15:58.867Z,20.73
2018-01-13T16:18:26.478Z,23.07
2018-01-13T16:20:54.079Z,21.03
2018-01-13T16:23:21.960Z,21.63
2018-01-13T16:25:49.812Z,20.33
2018-01-13T16:28:17.559Z,22.47
2018-01-13T16:30:45.186Z,20.33
2018-01-13T16:33:12.749Z,22.80
2018-01-13T16:35:41.044Z,20.60
2018-01-13T16:38:08.644Z,21.30
2018-01-13T16:40:36.218Z,22.10
2018-01-13T16:43:04.240Z,22.00
2018-01-13T16:45:31.907Z,23.17
2018-01-13T16:47:59.635Z,23.10
2018-01-13T16:50:27.679Z,22.80
2018-01-13T16:52:55.258Z,22.20
2018-01-13T16:55:22.861Z,22.33
2018-01-13T16:57:50.558Z,23.87
2018-01-13T17:00:18.314Z,22.57
2018-01-13T17:02:46.345Z,24.97
2018-01-13T17:05:13.977Z,22.43
2018-01-13T17:07:41.549Z,23.10
2018-01-13T17:10:09.176Z,23.90
2018-01-13T17:12:36.772Z,24.37
2018-01-13T17:15:04.425Z,23.23
2018-01-13T17:17:32.249Z,24.10
2018-01-13T17:19:59.841Z,22.40
2018-01-13T17:22:27.431Z,24.80
2018-01-13T17:24:55.082Z,22.23
2018-01-13T17:27:22.690Z,23.90
2018-01-13T17:29:50.328Z,23.03
2018-01-13T17:32:18.022Z,23.33
2018-01-13T17:34:45.594Z,23.17
2018-01-13T17:37:13.477Z,24.70
2018-01-13T17:39:41.145Z,28.60
2018-01-13T17:42:08.988Z,26.20
2018-01-13T17:44:38.854Z,27.03
2018-01-13T17:47:09.637Z,26.60
2018-01-13T17:49:37.287Z,27.57
2018-01-13T17:52:12.467Z,27.33
2018-01-13T17:54:41.396Z,26.20
2018-01-13T17:57:09.152Z,27.33
2018-01-13T17:59:37.514Z,28.90
2018-01-13T18:02:05.600Z,24.90
2018-01-13T18:04:33.236Z,28.20
2018-01-13T18:07:03.328Z,26.93
2018-01-13T18:09:32.034Z,27.30
2018-01-13T18:11:59.714Z,27.10
2018-01-13T18:14:43.979Z,27.60
2018-01-13T18:17:15.019Z,28.67
2018-01-13T18:19:44.647Z,28.07
2018-01-13T18:22:12.983Z,25.57
2018-01-13T18:24:40.703Z,24.63
2018-01-13T18:27:08.339Z,27.87
2018-01-13T18:29:36.254Z,27.83
2018-01-13T18:32:03.833Z,27.87
2018-01-13T18:34:32.186Z,28.00
2018-01-13T18:36:59.759Z,27.40
2018-01-13T18:39:27.358Z,25.77
2018-01-13T18:41:55.017Z,28.27
2018-01-13T18:44:22.685Z,26.00
2018-01-13T18:46:51.295Z,27.63
2018-01-13T18:49:19.288Z,29.03
2018-01-13T18:51:46.936Z,28.40
2018-01-13T18:54:14.512Z,27.83
2018-01-13T18:56:42.529Z,30.03
2018-01-13T18:59:10.187Z,29.00
2018-01-13T19:01:37.871Z,26.03
2018-01-13T19:04:05.685Z,28.57
2018-01-13T19:06:33.480Z,26.67
2018-01-13T19:09:01.404Z,30.03
2018-01-13T19:11:29.479Z,28.20
2018-01-13T19:13:57.268Z,27.33
2018-01-13T19:16:24.954Z,30.00
2018-01-13T19:18:52.587Z,26.67
2018-01-13T19:21:20.159Z,26.43
2018-01-13T19:23:48.114Z,28.90
2018-01-13T19:26:15.912Z,27.03
2018-01-13T19:28:43.947Z,30.03
2018-01-13T19:31:11.534Z,30.40
2018-01-13T19:33:39.175Z,29.30
2018-01-13T19:36:06.829Z,32.27
2018-01-13T19:38:34.493Z,28.50
2018-01-13T19:41:02.057Z,29.93
2018-01-13T19:43:29.884Z,31.00
2018-01-13T19:45:57.546Z,28.97
2018-01-13T19:48:26.414Z,29.77
2018-01-13T19:50:54.354Z,30.00
2018-01-13T19:53:21.964Z,30.23
2018-01-13T19:55:49.571Z,28.63
2018-01-13T19:58:17.527Z,31.30
2018-01-13T20:00:45.176Z,30.40
2018-01-13T20:03:12.763Z,29.67
2018-01-13T20:05:40.364Z,28.13
2018-01-13T20:08:08.556Z,29.57
2018-01-13T20:10:36.358Z,29.50
2018-01-13T20:13:04.045Z,29.77
2018-01-13T20:15:31.730Z,31.40
2018-01-13T20:17:59.745Z,29.50
2018-01-13T20:20:27.409Z,30.63
2018-01-13T20:22:55.018Z,30.30
2018-01-13T20:25:22.658Z,31.63
2018-01-13T20:27:50.595Z,31.00
2018-01-13T20:30:18.212Z,28.53
2018-01-13T20:32:46.120Z,28.00
2018-01-13T20:35:14.093Z,32.37
2018-01-13T20:37:41.766Z,30.53
2018-01-13T20:40:09.410Z,30.47
2018-01-13T20:42:37.035Z,30.97
2018-01-13T20:45:04.651Z,30.37
2018-01-13T20:47:32.410Z,29.50
2018-01-13T20:50:00.068Z,33.70
2018-01-13T20:52:27.900Z,30.23
2018-01-13T20:54:55.598Z,29.23
2018-01-13T20:57:23.563Z,29.17
2018-01-13T20:59:51.192Z,27.60
2018-01-13T21:02:18.876Z,30.00
2018-01-13T21:04:46.485Z,31.40
2018-01-13T21:07:14.098Z,30.30
2018-01-13T21:09:42.172Z,28.90
2018-01-13T21:12:09.766Z,29.40
2018-01-13T21:14:37.380Z,31.90
2018-01-13T21:17:05.173Z,29.80
2018-01-13T21:19:32.838Z,31.73
2018-01-13T21:22:00.529Z,31.23
2018-01-13T21:24:28.165Z,27.33
2018-01-13T21:26:55.762Z,27.77
2018-01-13T21:29:23.794Z,30.83
2018-01-13T21:31:51.465Z,26.73
2018-01-13T21:34:19.156Z,27.30
2018-01-13T21:36:46.754Z,27.43
2018-01-13T21:39:14.327Z,27.93
2018-01-13T21:41:42.219Z,25.93
2018-01-13T21:44:10.130Z,24.30
2018-01-13T21:46:37.820Z,24.53
2018-01-13T21:49:05.522Z,20.63
2018-01-13T21:51:33.173Z,22.77
2018-01-13T21:54:00.781Z,23.13
2018-01-13T21:56:28.373Z,22.03
2018-01-13T21:58:56.384Z,25.37
2018-01-13T22:01:23.949Z,24.23
2018-01-13T22:03:51.553Z,25.03
2018-01-13T22:06:19.417Z,25.60
2018-01-13T22:08:47.417Z,24.80
2018-01-13T22:11:15.008Z,28.07
2018-01-13T22:13:42.940Z,25.83
2018-01-13T22:16:10.707Z,26.13
2018-01-13T22:18:38.518Z,27.00
2018-01-13T22:21:06.245Z,23.53
2018-01-13T22:23:33.984Z,25.37
2018-01-13T22:26:01.545Z,27.43
2018-01-13T22:28:29.131Z,26.50
2018-01-13T22:30:56.697Z,25.10
2018-01-13T22:33:24.642Z,25.03
2018-01-13T22:35:52.248Z,24.07
2018-01-13T22:38:19.887Z,22.50
2018-01-13T22:40:47.587Z,24.57
2018-01-13T22:43:15.429Z,23.87
2018-01-13T22:45:43.086Z,22.60
2018-01-13T22:48:10.720Z,21.70
2018-01-13T22:50:38.727Z,22.27
2018-01-13T22:53:06.306Z,22.93
2018-01-13T22:55:34.005Z,22.90
2018-01-13T22:58:01.622Z,23.03
2018-01-13T23:00:32.993Z,22.97
2018-01-13T23:03:00.578Z,23.30
2018-01-13T23:05:28.254Z,22.70
2018-01-13T23:07:56.115Z,22.02
2018-01-13T23:10:23.741Z,21.40
2018-01-13T23:12:51.738Z,23.13
2018-01-13T23:15:19.329Z,21.87
2018-01-13T23:17:46.951Z,18.37
2018-01-13T23:20:14.624Z,21.10
2018-01-13T23:22:42.239Z,21.80
2018-01-13T23:25:09.884Z,21.85
2018-01-13T23:27:37.513Z,19.07
2018-01-13T23:30:05.220Z,17.47
2018-01-13T23:32:32.828Z,18.20
2018-01-13T23:35:00.959Z,19.27
2018-01-13T23:37:28.790Z,20.20
2018-01-13T23:39:56.653Z,18.15
2018-01-13T23:42:24.292Z,18.57
2018-01-13T23:44:51.932Z,19.93
2018-01-13T23:47:19.765Z,18.80
2018-01-13T23:49:47.741Z,19.40
2018-01-13T23:52:15.432Z,19.40
2018-01-13T23:54:43.059Z,18.10
2018-01-13T23:57:10.682Z,17.60
2018-01-13T23:59:38.462Z,19.67
